createdAt,value
2023-02-26T00:00:25.721Z,98481.84
2023-02-26T00:02:53.665Z,98471.63
2023-02-26T00:05:21.645Z,98455.84
2023-02-26T00:07:49.924Z,98442.50
2023-02-26T00:10:17.987Z,98435.97
2023-02-26T00:12:48.017Z,98443.56
2023-02-26T00:15:18.338Z,98434.53
2023-02-26T00:17:56.243Z,98424.00
2023-02-26T00:20:25.162Z,98423.78
2023-02-26T00:22:53.622Z,98415.88
2023-02-26T00:25:21.504Z,98441.81
2023-02-26T00:27:51.478Z,98449.63
2023-02-26T00:30:20.298Z,98474.88
2023-02-26T00:32:48.883Z,98472.66
2023-02-26T00:35:17.992Z,98481.94
2023-02-26T00:38:03.381Z,98489.53
2023-02-26T00:40:38.754Z,98497.97
2023-02-26T00:43:10.902Z,98490.75
2023-02-26T00:45:42.402Z,98496.56
2023-02-26T00:48:26.246Z,98490.81
2023-02-26T00:51:00.951Z,98485.84
2023-02-26T00:53:35.200Z,98491.88
2023-02-26T00:56:03.183Z,98495.13
2023-02-26T00:58:32.355Z,98498.34
2023-02-26T01:01:01.056Z,98496.63
2023-02-26T01:03:29.951Z,98487.38
2023-02-26T01:05:58.103Z,98497.38
2023-02-26T01:08:32.935Z,98494.13
2023-02-26T01:11:01.591Z,98491.28
2023-02-26T01:13:29.912Z,98511.28
2023-02-26T01:16:05.063Z,98513.69
2023-02-26T01:18:39.789Z,98520.63
2023-02-26T01:21:14.830Z,98500.94
2023-02-26T01:23:46.680Z,98525.00
2023-02-26T01:26:18.984Z,98518.16
2023-02-26T01:28:47.365Z,98512.03
2023-02-26T01:31:31.053Z,98500.53
2023-02-26T01:34:04.458Z,98464.63
2023-02-26T01:36:35.815Z,98438.47
2023-02-26T01:39:08.522Z,98419.66
2023-02-26T01:41:40.556Z,98417.31
2023-02-26T01:44:21.483Z,98442.81
2023-02-26T01:47:17.402Z,98457.09
2023-02-26T01:49:46.286Z,98442.72
2023-02-26T01:52:47.538Z,98429.63
2023-02-26T01:55:16.519Z,98454.47
2023-02-26T01:57:45.142Z,98453.94
2023-02-26T02:00:14.311Z,98454.91
2023-02-26T02:02:43.872Z,98455.09
2023-02-26T02:05:17.899Z,98479.94
2023-02-26T02:07:47.494Z,98503.66
2023-02-26T02:10:15.587Z,98510.22
2023-02-26T02:12:53.188Z,98530.97
2023-02-26T02:15:27.644Z,98532.88
2023-02-26T02:18:06.180Z,98529.72
2023-02-26T02:21:03.984Z,98525.50
2023-02-26T02:23:35.763Z,98538.00
2023-02-26T02:26:20.783Z,98548.75
2023-02-26T02:29:10.789Z,98542.28
2023-02-26T02:31:46.972Z,98526.75
2023-02-26T02:34:20.654Z,98499.81
2023-02-26T02:36:55.229Z,98512.53
2023-02-26T02:39:28.781Z,98529.38
2023-02-26T02:42:02.662Z,98535.22
2023-02-26T02:44:33.928Z,98536.38
2023-02-26T02:47:06.353Z,98533.56
2023-02-26T02:49:39.550Z,98541.50
2023-02-26T02:52:14.868Z,98537.22
2023-02-26T02:54:50.248Z,98524.06
2023-02-26T02:57:22.428Z,98528.09
2023-02-26T02:59:55.425Z,98571.78
2023-02-26T03:02:33.377Z,98579.97
2023-02-26T03:05:01.386Z,98589.84
2023-02-26T03:07:34.246Z,98578.28
2023-02-26T03:10:02.308Z,98609.59
2023-02-26T03:12:33.275Z,98613.31
2023-02-26T03:15:02.351Z,98607.66
2023-02-26T03:17:37.531Z,98605.25
2023-02-26T03:20:17.890Z,98586.94
2023-02-26T03:22:54.293Z,98598.25
2023-02-26T03:25:29.001Z,98602.25
2023-02-26T03:28:08.239Z,98607.97
2023-02-26T03:30:42.142Z,98594.78
2023-02-26T03:33:18.860Z,98597.25
2023-02-26T03:35:53.061Z,98613.84
2023-02-26T03:38:29.445Z,98614.63
2023-02-26T03:41:04.031Z,98621.94
2023-02-26T03:43:38.222Z,98628.38
2023-02-26T03:46:14.800Z,98627.47
2023-02-26T03:48:46.365Z,98634.28
2023-02-26T03:51:15.762Z,98622.72
2023-02-26T03:54:06.369Z,98627.53
2023-02-26T03:56:42.962Z,98620.91
2023-02-26T03:59:39.583Z,98617.59
2023-02-26T04:02:40.977Z,98619.94
2023-02-26T04:05:20.024Z,98622.34
2023-02-26T04:07:49.338Z,98621.44
2023-02-26T04:10:20.381Z,98621.56
2023-02-26T04:12:48.450Z,98610.66
2023-02-26T04:15:16.538Z,98630.53
2023-02-26T04:17:44.468Z,98637.03
2023-02-26T04:20:12.947Z,98621.16
2023-02-26T04:22:42.184Z,98633.63
2023-02-26T04:25:10.629Z,98629.41
2023-02-26T04:27:39.862Z,98639.28
2023-02-26T04:30:09.739Z,98642.47
2023-02-26T04:32:37.774Z,98649.88
2023-02-26T04:35:08.578Z,98678.72
2023-02-26T04:37:36.591Z,98681.13
2023-02-26T04:40:07.632Z,98692.81
2023-02-26T04:42:35.611Z,98696.19
2023-02-26T04:45:03.855Z,98694.59
2023-02-26T04:47:33.260Z,98701.22
2023-02-26T04:50:01.462Z,98697.06
2023-02-26T04:52:31.002Z,98696.97
2023-02-26T04:55:00.013Z,98690.28
2023-02-26T04:57:29.406Z,98713.13
2023-02-26T04:59:58.154Z,98706.44
2023-02-26T05:02:31.061Z,98693.97
2023-02-26T05:04:59.739Z,98687.34
2023-02-26T05:07:30.083Z,98702.00
2023-02-26T05:09:58.042Z,98703.59
2023-02-26T05:12:39.414Z,98698.53
2023-02-26T05:15:08.432Z,98705.16
2023-02-26T05:17:36.546Z,98695.94
2023-02-26T05:20:05.885Z,98692.69
2023-02-26T05:22:33.794Z,98694.16
2023-02-26T05:25:01.668Z,98690.78
2023-02-26T05:27:30.513Z,98698.13
2023-02-26T05:29:59.945Z,98700.47
2023-02-26T05:32:28.211Z,98692.81
2023-02-26T05:34:57.883Z,98708.38
2023-02-26T05:37:25.758Z,98691.13
2023-02-26T05:39:53.594Z,98698.53
2023-02-26T05:42:21.391Z,98717.47
2023-02-26T05:44:49.243Z,98713.25
2023-02-26T05:47:18.798Z,98726.50
2023-02-26T05:49:46.733Z,98730.59
2023-02-26T05:52:14.743Z,98730.59
2023-02-26T05:54:42.764Z,98738.91
2023-02-26T05:57:10.704Z,98732.44
2023-02-26T05:59:39.288Z,98730.06
2023-02-26T06:02:07.297Z,98737.88
2023-02-26T06:04:36.917Z,98736.25
2023-02-26T06:07:04.722Z,98755.78
2023-02-26T06:09:32.535Z,98757.50
2023-02-26T06:12:00.413Z,98769.91
2023-02-26T06:14:28.217Z,98779.06
2023-02-26T06:16:56.002Z,98791.47
2023-02-26T06:19:44.958Z,98797.13
2023-02-26T06:22:12.858Z,98796.34
2023-02-26T06:24:40.653Z,98790.63
2023-02-26T06:27:08.524Z,98796.47
2023-02-26T06:29:37.638Z,98805.81
2023-02-26T06:32:06.223Z,98806.50
2023-02-26T06:34:34.572Z,98811.47
2023-02-26T06:37:03.865Z,98823.78
2023-02-26T06:39:31.764Z,98827.78
2023-02-26T06:42:00.143Z,98834.28
2023-02-26T06:44:31.008Z,98843.63
2023-02-26T06:46:58.895Z,98846.44
2023-02-26T06:49:26.760Z,98838.25
2023-02-26T06:51:54.654Z,98841.44
2023-02-26T06:54:23.894Z,98837.13
2023-02-26T06:56:52.411Z,98841.22
2023-02-26T06:59:20.400Z,98839.75
2023-02-26T07:01:48.228Z,98840.53
2023-02-26T07:04:16.026Z,98847.16
2023-02-26T07:06:44.083Z,98854.56
2023-02-26T07:09:12.105Z,98865.34
2023-02-26T07:11:41.466Z,98870.28
2023-02-26T07:14:09.301Z,98869.44
2023-02-26T07:16:37.256Z,98868.59
2023-02-26T07:19:05.152Z,98875.94
2023-02-26T07:21:33.181Z,98873.53
2023-02-26T07:24:01.313Z,98876.78
2023-02-26T07:26:29.220Z,98880.94
2023-02-26T07:28:58.463Z,98888.34
2023-02-26T07:31:26.965Z,98890.97
2023-02-26T07:33:55.015Z,98890.19
2023-02-26T07:36:22.909Z,98881.00
2023-02-26T07:38:50.839Z,98888.50
2023-02-26T07:41:18.866Z,98884.25
2023-02-26T07:43:46.758Z,98880.03
2023-02-26T07:46:16.019Z,98879.38
2023-02-26T07:48:44.067Z,98871.28
2023-02-26T07:51:12.104Z,98868.44
2023-02-26T07:53:39.884Z,98892.00
2023-02-26T07:56:07.757Z,98905.38
2023-02-26T07:58:35.564Z,98892.41
2023-02-26T08:01:03.520Z,98898.34
2023-02-26T08:03:33.166Z,98899.31
2023-02-26T08:06:01.280Z,98904.41
2023-02-26T08:08:31.374Z,98897.16
2023-02-26T08:11:00.567Z,98906.63
2023-02-26T08:13:29.068Z,98902.75
2023-02-26T08:15:57.450Z,98906.31
2023-02-26T08:18:25.722Z,98907.44
2023-02-26T08:20:56.805Z,98904.81
2023-02-26T08:23:26.662Z,98898.19
2023-02-26T08:26:01.966Z,98923.94
2023-02-26T08:28:30.572Z,98914.25
2023-02-26T08:30:58.457Z,98917.63
2023-02-26T08:33:27.457Z,98921.91
2023-02-26T08:35:58.964Z,98915.28
2023-02-26T08:38:27.664Z,98921.06
2023-02-26T08:40:56.670Z,98916.13
2023-02-26T08:43:25.162Z,98930.97
2023-02-26T08:45:54.136Z,98930.03
2023-02-26T08:48:22.399Z,98926.84
2023-02-26T08:50:50.627Z,98924.47
2023-02-26T08:53:19.849Z,98937.88
2023-02-26T08:55:49.131Z,98925.66
2023-02-26T08:58:17.587Z,98933.97
2023-02-26T09:00:46.058Z,98931.22
2023-02-26T09:03:14.186Z,98952.06
2023-02-26T09:05:42.911Z,98949.59
2023-02-26T09:08:15.466Z,98953.06
2023-02-26T09:10:44.856Z,98953.16
2023-02-26T09:13:12.741Z,98961.09
2023-02-26T09:15:40.711Z,98973.25
2023-02-26T09:18:15.266Z,98984.06
2023-02-26T09:20:43.482Z,98973.78
2023-02-26T09:23:11.574Z,98975.34
2023-02-26T09:25:39.823Z,98988.88
2023-02-26T09:28:09.051Z,98992.00
2023-02-26T09:30:36.999Z,98992.41
2023-02-26T09:33:05.663Z,98988.53
2023-02-26T09:35:33.812Z,99000.59
2023-02-26T09:38:01.683Z,99011.44
2023-02-26T09:40:38.921Z,99020.63
2023-02-26T09:43:22.940Z,99017.50
2023-02-26T09:45:52.880Z,99032.00
2023-02-26T09:48:22.135Z,99022.19
2023-02-26T09:50:53.352Z,99022.31
2023-02-26T09:53:24.011Z,99021.66
2023-02-26T09:55:55.780Z,99015.41
2023-02-26T09:58:29.961Z,99013.56
2023-02-26T10:01:06.028Z,99021.59
2023-02-26T10:03:43.599Z,99028.44
2023-02-26T10:06:20.597Z,99030.09
2023-02-26T10:08:59.932Z,99028.84
2023-02-26T10:11:33.741Z,99037.31
2023-02-26T10:14:08.130Z,99059.53
2023-02-26T10:16:42.305Z,99055.00
2023-02-26T10:19:16.158Z,99040.69
2023-02-26T10:21:49.264Z,99043.56
2023-02-26T10:24:21.888Z,99059.41
2023-02-26T10:26:55.145Z,99065.69
2023-02-26T10:29:29.415Z,99071.78
2023-02-26T10:32:07.695Z,99083.09
2023-02-26T10:34:40.282Z,99085.38
2023-02-26T10:37:17.899Z,99087.06
2023-02-26T10:39:51.544Z,99091.16
2023-02-26T10:42:24.127Z,99107.84
2023-02-26T10:45:20.278Z,99107.69
2023-02-26T10:48:03.106Z,99121.84
2023-02-26T10:50:32.201Z,99117.38
2023-02-26T10:53:00.618Z,99130.81
2023-02-26T10:55:38.893Z,99138.94
2023-02-26T10:58:13.291Z,99125.66
2023-02-26T11:00:45.112Z,99128.47
2023-02-26T11:03:18.856Z,99138.75
2023-02-26T11:05:48.193Z,99142.00
2023-02-26T11:08:20.485Z,99116.69
2023-02-26T11:10:51.850Z,99134.31
2023-02-26T11:13:20.030Z,99135.66
2023-02-26T11:15:52.185Z,99134.88
2023-02-26T11:18:24.629Z,99136.22
2023-02-26T11:20:56.194Z,99132.53
2023-02-26T11:23:28.461Z,99130.16
2023-02-26T11:26:02.556Z,99142.28
2023-02-26T11:28:33.448Z,99149.56
2023-02-26T11:31:07.817Z,99149.91
2023-02-26T11:33:38.849Z,99138.50
2023-02-26T11:36:12.296Z,99149.44
2023-02-26T11:38:41.315Z,99156.75
2023-02-26T11:41:09.465Z,99142.16
2023-02-26T11:43:44.776Z,99147.47
2023-02-26T11:46:14.991Z,99152.31
2023-02-26T11:48:45.238Z,99157.28
2023-02-26T11:51:16.869Z,99147.59
2023-02-26T11:53:50.249Z,99151.25
2023-02-26T11:56:26.196Z,99139.53
2023-02-26T11:58:56.396Z,99155.88
2023-02-26T12:01:30.273Z,99150.03
2023-02-26T12:04:01.959Z,99152.50
2023-02-26T12:06:30.226Z,99151.66
2023-02-26T12:08:58.271Z,99159.34
2023-02-26T12:11:50.157Z,99138.69
2023-02-26T12:14:38.071Z,99154.78
2023-02-26T12:17:20.265Z,99156.94
2023-02-26T12:19:56.104Z,99163.19
2023-02-26T12:22:40.607Z,99168.97
2023-02-26T12:25:24.154Z,99175.91
2023-02-26T12:28:11.574Z,99173.94
2023-02-26T12:30:52.795Z,99186.22
2023-02-26T12:33:34.735Z,99164.66
2023-02-26T12:36:17.614Z,99191.53
2023-02-26T12:38:56.203Z,99176.41
2023-02-26T12:41:43.072Z,99178.78
2023-02-26T12:44:42.731Z,99195.59
2023-02-26T12:47:37.717Z,99181.28
2023-02-26T12:50:30.166Z,99183.13
2023-02-26T12:53:14.152Z,99190.53
2023-02-26T12:55:58.355Z,99187.22
2023-02-26T12:58:49.207Z,99189.03
2023-02-26T13:01:38.504Z,99186.13
2023-02-26T13:04:34.503Z,99199.06
2023-02-26T13:07:23.974Z,99188.72
2023-02-26T13:10:01.275Z,99200.50
2023-02-26T13:12:52.897Z,99189.88
2023-02-26T13:15:49.454Z,99184.78
2023-02-26T13:18:34.113Z,99193.91
2023-02-26T13:21:07.146Z,99200.63
2023-02-26T13:23:46.145Z,99203.41
2023-02-26T13:26:16.500Z,99183.66
2023-02-26T13:28:55.907Z,99203.41
2023-02-26T13:31:29.680Z,99195.53
2023-02-26T13:34:02.837Z,99201.34
2023-02-26T13:36:31.649Z,99215.69
2023-02-26T13:39:23.836Z,99213.09
2023-02-26T13:41:58.564Z,99227.88
2023-02-26T13:44:34.770Z,99241.00
2023-02-26T13:47:18.115Z,99232.53
2023-02-26T13:49:57.013Z,99231.09
2023-02-26T13:52:27.579Z,99233.75
2023-02-26T13:54:59.386Z,99223.22
2023-02-26T13:57:43.658Z,99242.91
2023-02-26T14:00:29.605Z,99235.00
2023-02-26T14:02:59.119Z,99242.91
2023-02-26T14:05:47.389Z,99252.53
2023-02-26T14:08:50.758Z,99277.66
2023-02-26T14:12:01.049Z,99272.91
2023-02-26T14:14:36.719Z,99244.69
2023-02-26T14:17:30.608Z,99263.03
2023-02-26T14:20:32.657Z,99278.63
2023-02-26T14:23:34.142Z,99270.28
2023-02-26T14:26:07.396Z,99277.78
2023-02-26T14:28:47.178Z,99269.84
2023-02-26T14:31:19.710Z,99273.81
2023-02-26T14:33:59.273Z,99275.78
2023-02-26T14:36:34.019Z,99267.75
2023-02-26T14:39:05.526Z,99276.72
2023-02-26T14:41:37.356Z,99275.16
2023-02-26T14:44:15.972Z,99277.63
2023-02-26T14:46:45.320Z,99295.28
2023-02-26T14:49:19.241Z,99289.50
2023-02-26T14:52:03.724Z,99290.22
2023-02-26T14:54:51.233Z,99304.09
2023-02-26T14:57:27.419Z,99305.50
2023-02-26T15:00:12.866Z,99297.22
2023-02-26T15:03:01.618Z,99301.25
2023-02-26T15:05:45.549Z,99295.38
2023-02-26T15:08:31.476Z,99293.81
2023-02-26T15:11:24.112Z,99300.53
2023-02-26T15:14:36.616Z,99303.94
2023-02-26T15:17:18.592Z,99310.50
2023-02-26T15:20:02.283Z,99320.41
2023-02-26T15:22:45.540Z,99333.63
2023-02-26T15:25:22.078Z,99333.19
2023-02-26T15:27:50.112Z,99339.59
2023-02-26T15:30:19.203Z,99348.63
2023-02-26T15:32:49.000Z,99331.22
2023-02-26T15:35:19.263Z,99333.91
2023-02-26T15:37:51.319Z,99340.84
2023-02-26T15:40:21.202Z,99340.69
2023-02-26T15:42:52.833Z,99344.44
2023-02-26T15:45:26.186Z,99344.13
2023-02-26T15:47:58.813Z,99348.78
2023-02-26T15:50:30.657Z,99349.28
2023-02-26T15:53:01.927Z,99348.81
2023-02-26T15:55:35.790Z,99361.94
2023-02-26T15:58:04.908Z,99359.97
2023-02-26T16:00:34.693Z,99363.75
2023-02-26T16:03:04.771Z,99370.06
2023-02-26T16:05:32.818Z,99381.41
2023-02-26T16:08:00.901Z,99383.75
2023-02-26T16:10:34.025Z,99384.28
2023-02-26T16:13:03.224Z,99396.56
2023-02-26T16:15:34.739Z,99398.72
2023-02-26T16:18:07.603Z,99403.81
2023-02-26T16:20:40.995Z,99402.81
2023-02-26T16:23:14.500Z,99410.00
2023-02-26T16:25:50.460Z,99395.47
2023-02-26T16:28:22.360Z,99404.41
2023-02-26T16:30:54.469Z,99383.00
2023-02-26T16:33:25.796Z,99413.53
2023-02-26T16:35:56.465Z,99420.75
2023-02-26T16:38:26.828Z,99428.94
2023-02-26T16:41:05.452Z,99432.25
2023-02-26T16:43:43.335Z,99437.22
2023-02-26T16:46:16.635Z,99433.13
2023-02-26T16:48:50.287Z,99447.00
2023-02-26T16:51:22.524Z,99451.19
2023-02-26T16:53:58.084Z,99453.66
2023-02-26T16:56:29.755Z,99450.28
2023-02-26T16:59:05.453Z,99457.69
2023-02-26T17:01:37.909Z,99465.00
2023-02-26T17:04:08.639Z,99471.66
2023-02-26T17:06:39.945Z,99483.25
2023-02-26T17:09:10.367Z,99491.47
2023-02-26T17:11:42.355Z,99475.84
2023-02-26T17:14:19.028Z,99498.41
2023-02-26T17:16:47.571Z,99500.63
2023-02-26T17:19:17.430Z,99503.75
2023-02-26T17:21:47.926Z,99511.03
2023-02-26T17:24:18.884Z,99510.69
2023-02-26T17:26:48.267Z,99493.50
2023-02-26T17:29:20.811Z,99522.59
2023-02-26T17:31:48.765Z,99501.91
2023-02-26T17:34:19.391Z,99507.78
2023-02-26T17:36:47.806Z,99515.72
2023-02-26T17:39:16.090Z,99509.66
2023-02-26T17:41:45.286Z,99518.44
2023-02-26T17:44:13.224Z,99518.44
2023-02-26T17:46:41.236Z,99502.50
2023-02-26T17:49:10.693Z,99516.38
2023-02-26T17:51:40.079Z,99517.94
2023-02-26T17:54:08.331Z,99503.78
2023-02-26T17:56:37.187Z,99519.28
2023-02-26T17:59:07.053Z,99518.16
2023-02-26T18:01:34.982Z,99513.66
2023-02-26T18:04:03.626Z,99513.66
2023-02-26T18:06:34.386Z,99523.66
2023-02-26T18:09:05.721Z,99519.34
2023-02-26T18:11:34.606Z,99525.13
2023-02-26T18:14:02.645Z,99517.66
2023-02-26T18:16:33.799Z,99520.03
2023-02-26T18:19:02.318Z,99520.69
2023-02-26T18:21:31.173Z,99514.72
2023-02-26T18:24:00.997Z,99518.63
2023-02-26T18:26:33.862Z,99529.34
2023-02-26T18:29:01.916Z,99522.72
2023-02-26T18:31:34.671Z,99525.84
2023-02-26T18:34:03.663Z,99531.53
2023-02-26T18:36:37.524Z,99534.81
2023-02-26T18:39:07.893Z,99530.53
2023-02-26T18:41:37.195Z,99537.84
2023-02-26T18:44:05.222Z,99537.00
2023-02-26T18:46:34.772Z,99544.31
2023-02-26T18:49:02.731Z,99540.91
2023-02-26T18:51:34.432Z,99537.47
2023-02-26T18:54:02.349Z,99532.56
2023-02-26T18:56:30.223Z,99538.16
2023-02-26T18:58:59.500Z,99541.38
2023-02-26T19:01:29.794Z,99537.97
2023-02-26T19:03:58.251Z,99527.47
2023-02-26T19:06:26.101Z,99543.41
2023-02-26T19:08:54.171Z,99546.63
2023-02-26T19:11:22.069Z,99537.16
2023-02-26T19:13:52.504Z,99542.19
2023-02-26T19:16:23.053Z,99551.38
2023-02-26T19:18:51.654Z,99555.56
2023-02-26T19:21:19.591Z,99562.09
2023-02-26T19:23:48.342Z,99564.66
2023-02-26T19:26:16.186Z,99570.34
2023-02-26T19:28:44.130Z,99567.88
2023-02-26T19:31:12.106Z,99573.66
2023-02-26T19:33:41.442Z,99563.13
2023-02-26T19:36:09.859Z,99573.75
2023-02-26T19:38:37.874Z,99573.00
2023-02-26T19:41:06.141Z,99579.78
2023-02-26T19:43:34.066Z,99587.13
2023-02-26T19:46:02.190Z,99587.94
2023-02-26T19:48:31.398Z,99597.06
2023-02-26T19:51:01.427Z,99587.59
2023-02-26T19:53:30.416Z,99605.06
2023-02-26T19:55:58.367Z,99609.03
2023-02-26T19:58:30.526Z,99607.34
2023-02-26T20:00:59.323Z,99617.28
2023-02-26T20:03:27.295Z,99619.66
2023-02-26T20:05:56.072Z,99622.31
2023-02-26T20:08:27.746Z,99613.97
2023-02-26T20:10:56.758Z,99625.53
2023-02-26T20:13:29.612Z,99616.44
2023-02-26T20:15:58.615Z,99614.72
2023-02-26T20:18:28.625Z,99617.19
2023-02-26T20:20:56.686Z,99620.22
2023-02-26T20:23:26.276Z,99633.31
2023-02-26T20:25:56.335Z,99620.88
2023-02-26T20:28:24.821Z,99624.03
2023-02-26T20:30:53.526Z,99622.06
2023-02-26T20:33:22.108Z,99630.97
2023-02-26T20:35:50.098Z,99629.34
2023-02-26T20:38:19.337Z,99631.06
2023-02-26T20:40:49.390Z,99629.34
2023-02-26T20:43:17.508Z,99634.94
2023-02-26T20:45:45.494Z,99611.94
2023-02-26T20:48:13.473Z,99639.69
2023-02-26T20:50:41.604Z,99636.16
2023-02-26T20:53:09.842Z,99649.44
2023-02-26T20:55:38.004Z,99641.84
2023-02-26T20:58:07.342Z,99651.72
2023-02-26T21:00:35.277Z,99652.47
2023-02-26T21:03:03.241Z,99650.66
2023-02-26T21:05:31.115Z,99653.13
2023-02-26T21:07:59.034Z,99658.81
2023-02-26T21:10:26.877Z,99656.34
2023-02-26T21:12:54.713Z,99663.69
2023-02-26T21:15:23.994Z,99662.22
2023-02-26T21:17:51.887Z,99664.69
2023-02-26T21:20:22.172Z,99659.69
2023-02-26T21:22:50.690Z,99662.06
2023-02-26T21:25:18.823Z,99661.88
2023-02-26T21:27:46.651Z,99669.72
2023-02-26T21:30:15.751Z,99672.94
2023-02-26T21:32:45.072Z,99680.25
2023-02-26T21:35:15.924Z,99672.94
2023-02-26T21:37:44.190Z,99667.66
2023-02-26T21:40:13.574Z,99667.47
2023-02-26T21:42:41.778Z,99675.25
2023-02-26T21:45:11.049Z,99674.28
2023-02-26T21:47:39.109Z,99673.53
2023-02-26T21:50:09.085Z,99676.75
2023-02-26T21:52:37.021Z,99675.06
2023-02-26T21:55:05.242Z,99677.72
2023-02-26T21:57:33.124Z,99683.56
2023-02-26T22:00:01.042Z,99686.03
2023-02-26T22:02:31.152Z,99689.25
2023-02-26T22:04:59.892Z,99702.53
2023-02-26T22:07:29.160Z,99697.22
2023-02-26T22:09:57.210Z,99706.88
2023-02-26T22:12:25.942Z,99705.75
2023-02-26T22:14:54.029Z,99704.03
2023-02-26T22:17:23.649Z,99713.88
2023-02-26T22:19:52.542Z,99716.84
2023-02-26T22:22:20.406Z,99717.50
2023-02-26T22:24:49.655Z,99722.25
2023-02-26T22:27:17.458Z,99730.38
2023-02-26T22:29:45.337Z,99726.81
2023-02-26T22:32:13.254Z,99730.22
2023-02-26T22:34:41.144Z,99739.88
2023-02-26T22:37:08.978Z,99739.88
2023-02-26T22:39:36.796Z,99741.59
2023-02-26T22:42:06.109Z,99751.66
2023-02-26T22:44:34.483Z,99754.88
2023-02-26T22:47:02.327Z,99750.69
2023-02-26T22:49:30.196Z,99754.19
2023-02-26T22:51:58.003Z,99755.78
2023-02-26T22:54:25.914Z,99754.75
2023-02-26T22:56:53.703Z,99768.69
2023-02-26T22:59:23.088Z,99766.78
2023-02-26T23:01:50.976Z,99770.00
2023-02-26T23:04:19.061Z,99767.53
2023-02-26T23:06:46.954Z,99764.97
2023-02-26T23:09:14.806Z,99766.47
2023-02-26T23:11:42.704Z,99775.69
2023-02-26T23:14:10.623Z,99768.84
2023-02-26T23:16:39.857Z,99765.25
2023-02-26T23:19:07.914Z,99775.09
2023-02-26T23:21:35.964Z,99764.84
2023-02-26T23:24:03.841Z,99789.22
2023-02-26T23:26:31.860Z,99793.97
2023-02-26T23:28:59.722Z,99794.41
2023-02-26T23:31:28.176Z,99794.63
2023-02-26T23:33:57.688Z,99787.03
2023-02-26T23:36:25.612Z,99783.59
2023-02-26T23:38:53.518Z,99775.78
2023-02-26T23:41:21.355Z,99773.34
2023-02-26T23:43:49.299Z,99768.19
2023-02-26T23:46:17.151Z,99769.81
2023-02-26T23:48:45.111Z,99772.00
2023-02-26T23:51:14.379Z,99776.72
2023-02-26T23:53:42.250Z,99779.19
2023-02-26T23:56:10.171Z,99779.19
2023-02-26T23:58:38.018Z,99784.84
